sensor_id;sensor_type;location;lat;lon;timestamp;P1;durP1;ratioP1;P2;durP2;ratioP2
70840;SDS011;58465;51.534;9.934;2023-05-16T00:00:48;16.15;;;10.40;;
70840;SDS011;58465;51.534;9.934;2023-05-16T00:03:17;18.00;;;10.63;;
70840;SDS011;58465;51.534;9.934;2023-05-16T00:05:42;15.90;;;11.45;;
70840;SDS011;58465;51.534;9.934;2023-05-16T00:08:07;14.48;;;11.68;;
70840;SDS011;58465;51.534;9.934;2023-05-16T00:10:34;14.95;;;11.27;;
70840;SDS011;58465;51.534;9.934;2023-05-16T00:12:59;15.35;;;11.32;;
70840;SDS011;58465;51.534;9.934;2023-05-16T00:15:26;15.75;;;11.00;;
70840;SDS011;58465;51.534;9.934;2023-05-16T00:17:54;14.55;;;11.32;;
70840;SDS011;58465;51.534;9.934;2023-05-16T00:20:22;15.48;;;10.90;;
70840;SDS011;58465;51.534;9.934;2023-05-16T00:22:48;20.75;;;10.40;;
70840;SDS011;58465;51.534;9.934;2023-05-16T00:25:14;15.40;;;11.02;;
70840;SDS011;58465;51.534;9.934;2023-05-16T00:27:40;15.32;;;10.50;;
70840;SDS011;58465;51.534;9.934;2023-05-16T00:30:05;17.50;;;10.55;;
70840;SDS011;58465;51.534;9.934;2023-05-16T00:32:31;18.80;;;11.68;;
70840;SDS011;58465;51.534;9.934;2023-05-16T00:34:56;17.80;;;11.43;;
70840;SDS011;58465;51.534;9.934;2023-05-16T00:37:23;15.38;;;11.20;;
70840;SDS011;58465;51.534;9.934;2023-05-16T00:39:48;15.20;;;11.27;;
70840;SDS011;58465;51.534;9.934;2023-05-16T00:42:13;15.75;;;11.05;;
70840;SDS011;58465;51.534;9.934;2023-05-16T00:44:39;18.38;;;11.75;;
70840;SDS011;58465;51.534;9.934;2023-05-16T00:47:05;17.23;;;10.90;;
70840;SDS011;58465;51.534;9.934;2023-05-16T00:49:30;12.80;;;11.38;;
70840;SDS011;58465;51.534;9.934;2023-05-16T00:51:56;18.00;;;11.43;;
70840;SDS011;58465;51.534;9.934;2023-05-16T00:54:22;15.07;;;12.07;;
70840;SDS011;58465;51.534;9.934;2023-05-16T00:56:50;14.35;;;10.68;;
70840;SDS011;58465;51.534;9.934;2023-05-16T00:59:16;13.88;;;10.73;;
70840;SDS011;58465;51.534;9.934;2023-05-16T01:01:43;16.27;;;11.23;;
70840;SDS011;58465;51.534;9.934;2023-05-16T01:04:12;15.18;;;10.32;;
70840;SDS011;58465;51.534;9.934;2023-05-16T01:06:37;15.48;;;11.07;;
70840;SDS011;58465;51.534;9.934;2023-05-16T01:09:03;14.85;;;10.75;;
70840;SDS011;58465;51.534;9.934;2023-05-16T01:11:39;14.15;;;11.13;;
70840;SDS011;58465;51.534;9.934;2023-05-16T01:17:17;13.38;;;10.30;;
70840;SDS011;58465;51.534;9.934;2023-05-16T01:19:54;15.73;;;10.10;;
70840;SDS011;58465;51.534;9.934;2023-05-16T01:22:45;14.25;;;10.63;;
70840;SDS011;58465;51.534;9.934;2023-05-16T01:25:20;14.15;;;10.40;;
70840;SDS011;58465;51.534;9.934;2023-05-16T01:28:03;15.40;;;10.43;;
70840;SDS011;58465;51.534;9.934;2023-05-16T01:30:35;12.65;;;10.20;;
70840;SDS011;58465;51.534;9.934;2023-05-16T01:33:02;15.00;;;9.88;;
70840;SDS011;58465;51.534;9.934;2023-05-16T01:35:28;13.75;;;9.55;;
70840;SDS011;58465;51.534;9.934;2023-05-16T01:37:59;14.40;;;9.65;;
70840;SDS011;58465;51.534;9.934;2023-05-16T01:40:58;14.48;;;10.13;;
70840;SDS011;58465;51.534;9.934;2023-05-16T01:43:43;14.35;;;9.88;;
70840;SDS011;58465;51.534;9.934;2023-05-16T01:46:21;12.82;;;10.00;;
70840;SDS011;58465;51.534;9.934;2023-05-16T01:51:59;16.60;;;9.73;;
70840;SDS011;58465;51.534;9.934;2023-05-16T01:54:26;11.98;;;9.57;;
70840;SDS011;58465;51.534;9.934;2023-05-16T01:56:55;13.55;;;9.68;;
70840;SDS011;58465;51.534;9.934;2023-05-16T02:02:09;16.77;;;9.93;;
70840;SDS011;58465;51.534;9.934;2023-05-16T02:04:34;13.65;;;9.57;;
70840;SDS011;58465;51.534;9.934;2023-05-16T02:07:00;14.13;;;8.88;;
70840;SDS011;58465;51.534;9.934;2023-05-16T02:09:25;14.43;;;8.57;;
70840;SDS011;58465;51.534;9.934;2023-05-16T02:11:51;16.50;;;9.13;;
70840;SDS011;58465;51.534;9.934;2023-05-16T02:14:16;12.63;;;8.55;;
70840;SDS011;58465;51.534;9.934;2023-05-16T02:16:41;13.55;;;8.68;;
70840;SDS011;58465;51.534;9.934;2023-05-16T02:19:07;13.18;;;9.18;;
70840;SDS011;58465;51.534;9.934;2023-05-16T02:21:33;14.82;;;8.88;;
70840;SDS011;58465;51.534;9.934;2023-05-16T02:23:58;16.33;;;9.00;;
70840;SDS011;58465;51.534;9.934;2023-05-16T02:26:23;12.73;;;8.88;;
70840;SDS011;58465;51.534;9.934;2023-05-16T02:28:48;14.45;;;9.23;;
70840;SDS011;58465;51.534;9.934;2023-05-16T02:31:35;11.55;;;8.00;;
70840;SDS011;58465;51.534;9.934;2023-05-16T02:33:59;12.48;;;8.75;;
70840;SDS011;58465;51.534;9.934;2023-05-16T02:36:27;13.27;;;8.55;;
70840;SDS011;58465;51.534;9.934;2023-05-16T02:38:52;12.77;;;8.43;;
70840;SDS011;58465;51.534;9.934;2023-05-16T02:41:18;12.10;;;8.27;;
70840;SDS011;58465;51.534;9.934;2023-05-16T02:43:44;11.93;;;7.90;;
70840;SDS011;58465;51.534;9.934;2023-05-16T02:46:20;12.57;;;8.40;;
70840;SDS011;58465;51.534;9.934;2023-05-16T02:48:46;12.55;;;8.05;;
70840;SDS011;58465;51.534;9.934;2023-05-16T02:51:11;12.30;;;7.80;;
70840;SDS011;58465;51.534;9.934;2023-05-16T02:53:36;10.63;;;6.75;;
70840;SDS011;58465;51.534;9.934;2023-05-16T02:56:02;10.60;;;7.40;;
70840;SDS011;58465;51.534;9.934;2023-05-16T02:58:30;11.02;;;6.55;;
70840;SDS011;58465;51.534;9.934;2023-05-16T03:00:56;11.10;;;6.72;;
70840;SDS011;58465;51.534;9.934;2023-05-16T03:03:22;9.55;;;6.55;;
70840;SDS011;58465;51.534;9.934;2023-05-16T03:05:47;10.00;;;6.30;;
70840;SDS011;58465;51.534;9.934;2023-05-16T03:08:13;10.95;;;6.45;;
70840;SDS011;58465;51.534;9.934;2023-05-16T03:10:38;11.90;;;6.38;;
70840;SDS011;58465;51.534;9.934;2023-05-16T03:13:03;10.93;;;6.70;;
70840;SDS011;58465;51.534;9.934;2023-05-16T03:15:28;14.13;;;7.00;;
70840;SDS011;58465;51.534;9.934;2023-05-16T03:17:54;11.05;;;6.40;;
70840;SDS011;58465;51.534;9.934;2023-05-16T03:20:23;11.45;;;6.72;;
70840;SDS011;58465;51.534;9.934;2023-05-16T03:22:48;9.57;;;6.22;;
70840;SDS011;58465;51.534;9.934;2023-05-16T03:25:13;8.98;;;6.43;;
70840;SDS011;58465;51.534;9.934;2023-05-16T03:27:39;14.40;;;6.72;;
70840;SDS011;58465;51.534;9.934;2023-05-16T03:30:04;12.23;;;7.15;;
70840;SDS011;58465;51.534;9.934;2023-05-16T03:32:31;10.82;;;6.78;;
70840;SDS011;58465;51.534;9.934;2023-05-16T03:34:57;12.10;;;7.07;;
70840;SDS011;58465;51.534;9.934;2023-05-16T03:37:22;10.68;;;6.57;;
70840;SDS011;58465;51.534;9.934;2023-05-16T03:39:47;10.60;;;6.45;;
70840;SDS011;58465;51.534;9.934;2023-05-16T03:42:13;10.32;;;7.28;;
70840;SDS011;58465;51.534;9.934;2023-05-16T03:44:38;12.15;;;7.10;;
70840;SDS011;58465;51.534;9.934;2023-05-16T03:47:03;14.52;;;6.85;;
70840;SDS011;58465;51.534;9.934;2023-05-16T03:49:29;10.18;;;6.35;;
70840;SDS011;58465;51.534;9.934;2023-05-16T03:51:54;10.05;;;6.40;;
70840;SDS011;58465;51.534;9.934;2023-05-16T03:54:19;10.63;;;6.68;;
70840;SDS011;58465;51.534;9.934;2023-05-16T03:56:45;10.80;;;6.45;;
70840;SDS011;58465;51.534;9.934;2023-05-16T03:59:11;11.45;;;6.78;;
70840;SDS011;58465;51.534;9.934;2023-05-16T04:01:37;12.70;;;6.85;;
70840;SDS011;58465;51.534;9.934;2023-05-16T04:04:02;13.40;;;7.43;;
70840;SDS011;58465;51.534;9.934;2023-05-16T04:06:27;10.95;;;6.47;;
70840;SDS011;58465;51.534;9.934;2023-05-16T04:08:53;9.35;;;6.30;;
70840;SDS011;58465;51.534;9.934;2023-05-16T04:11:18;9.40;;;6.63;;
70840;SDS011;58465;51.534;9.934;2023-05-16T04:13:43;12.20;;;7.03;;
70840;SDS011;58465;51.534;9.934;2023-05-16T04:16:09;12.85;;;6.43;;
70840;SDS011;58465;51.534;9.934;2023-05-16T04:18:34;14.45;;;6.90;;
70840;SDS011;58465;51.534;9.934;2023-05-16T04:20:59;11.35;;;6.93;;
70840;SDS011;58465;51.534;9.934;2023-05-16T04:23:25;12.15;;;7.35;;
70840;SDS011;58465;51.534;9.934;2023-05-16T04:25:51;9.80;;;6.38;;
70840;SDS011;58465;51.534;9.934;2023-05-16T04:28:17;9.63;;;7.00;;
70840;SDS011;58465;51.534;9.934;2023-05-16T04:30:42;12.15;;;7.00;;
70840;SDS011;58465;51.534;9.934;2023-05-16T04:33:07;11.85;;;6.88;;
70840;SDS011;58465;51.534;9.934;2023-05-16T04:35:33;9.50;;;6.68;;
70840;SDS011;58465;51.534;9.934;2023-05-16T04:37:58;10.15;;;6.45;;
70840;SDS011;58465;51.534;9.934;2023-05-16T04:40:23;10.98;;;6.50;;
70840;SDS011;58465;51.534;9.934;2023-05-16T04:42:49;9.27;;;6.22;;
70840;SDS011;58465;51.534;9.934;2023-05-16T04:45:24;10.50;;;6.10;;
70840;SDS011;58465;51.534;9.934;2023-05-16T04:47:50;8.60;;;5.82;;
70840;SDS011;58465;51.534;9.934;2023-05-16T04:50:16;12.18;;;5.55;;
70840;SDS011;58465;51.534;9.934;2023-05-16T04:52:42;9.32;;;5.15;;
70840;SDS011;58465;51.534;9.934;2023-05-16T04:55:07;7.40;;;5.05;;
70840;SDS011;58465;51.534;9.934;2023-05-16T04:57:33;7.15;;;5.05;;
70840;SDS011;58465;51.534;9.934;2023-05-16T04:59:58;7.55;;;5.03;;
70840;SDS011;58465;51.534;9.934;2023-05-16T05:02:23;9.45;;;3.95;;
70840;SDS011;58465;51.534;9.934;2023-05-16T05:04:49;6.70;;;3.95;;
70840;SDS011;58465;51.534;9.934;2023-05-16T05:07:14;29.23;;;18.02;;
70840;SDS011;58465;51.534;9.934;2023-05-16T05:09:39;7.25;;;4.97;;
70840;SDS011;58465;51.534;9.934;2023-05-16T05:12:07;8.00;;;4.78;;
70840;SDS011;58465;51.534;9.934;2023-05-16T05:14:32;7.35;;;4.78;;
70840;SDS011;58465;51.534;9.934;2023-05-16T05:16:58;9.07;;;4.95;;
70840;SDS011;58465;51.534;9.934;2023-05-16T05:19:23;8.02;;;4.55;;
70840;SDS011;58465;51.534;9.934;2023-05-16T05:21:48;8.35;;;4.35;;
70840;SDS011;58465;51.534;9.934;2023-05-16T05:24:14;11.45;;;4.15;;
70840;SDS011;58465;51.534;9.934;2023-05-16T05:26:39;11.10;;;4.60;;
70840;SDS011;58465;51.534;9.934;2023-05-16T05:29:05;6.45;;;4.00;;
70840;SDS011;58465;51.534;9.934;2023-05-16T05:31:30;7.82;;;3.92;;
70840;SDS011;58465;51.534;9.934;2023-05-16T05:33:57;13.57;;;4.97;;
70840;SDS011;58465;51.534;9.934;2023-05-16T05:36:23;9.52;;;3.95;;
70840;SDS011;58465;51.534;9.934;2023-05-16T05:38:48;10.70;;;3.80;;
70840;SDS011;58465;51.534;9.934;2023-05-16T05:41:13;12.18;;;3.85;;
70840;SDS011;58465;51.534;9.934;2023-05-16T05:43:38;10.63;;;2.83;;
70840;SDS011;58465;51.534;9.934;2023-05-16T05:46:04;4.88;;;2.65;;
70840;SDS011;58465;51.534;9.934;2023-05-16T05:48:30;4.78;;;2.08;;
70840;SDS011;58465;51.534;9.934;2023-05-16T05:50:56;5.43;;;2.05;;
70840;SDS011;58465;51.534;9.934;2023-05-16T05:53:21;4.78;;;2.35;;
70840;SDS011;58465;51.534;9.934;2023-05-16T05:55:47;4.82;;;2.15;;
70840;SDS011;58465;51.534;9.934;2023-05-16T05:58:13;6.30;;;1.88;;
70840;SDS011;58465;51.534;9.934;2023-05-16T06:00:38;4.65;;;1.80;;
70840;SDS011;58465;51.534;9.934;2023-05-16T06:03:03;6.07;;;2.08;;
70840;SDS011;58465;51.534;9.934;2023-05-16T06:05:41;6.75;;;1.65;;
70840;SDS011;58465;51.534;9.934;2023-05-16T06:08:06;8.15;;;1.98;;
70840;SDS011;58465;51.534;9.934;2023-05-16T06:10:32;7.32;;;1.70;;
70840;SDS011;58465;51.534;9.934;2023-05-16T06:12:57;3.03;;;2.22;;
70840;SDS011;58465;51.534;9.934;2023-05-16T06:15:23;7.55;;;2.08;;
70840;SDS011;58465;51.534;9.934;2023-05-16T06:17:52;6.63;;;1.60;;
70840;SDS011;58465;51.534;9.934;2023-05-16T06:20:18;6.47;;;1.85;;
70840;SDS011;58465;51.534;9.934;2023-05-16T06:22:52;5.18;;;1.73;;
70840;SDS011;58465;51.534;9.934;2023-05-16T06:25:18;3.58;;;1.42;;
70840;SDS011;58465;51.534;9.934;2023-05-16T06:27:44;4.63;;;1.58;;
70840;SDS011;58465;51.534;9.934;2023-05-16T06:30:16;9.85;;;1.85;;
70840;SDS011;58465;51.534;9.934;2023-05-16T06:32:41;6.65;;;1.92;;
70840;SDS011;58465;51.534;9.934;2023-05-16T06:35:07;7.68;;;2.30;;
70840;SDS011;58465;51.534;9.934;2023-05-16T06:37:36;8.27;;;1.67;;
70840;SDS011;58465;51.534;9.934;2023-05-16T06:40:01;7.80;;;2.05;;
70840;SDS011;58465;51.534;9.934;2023-05-16T06:42:27;7.05;;;1.50;;
70840;SDS011;58465;51.534;9.934;2023-05-16T06:44:52;5.50;;;1.85;;
70840;SDS011;58465;51.534;9.934;2023-05-16T06:47:19;5.18;;;1.85;;
70840;SDS011;58465;51.534;9.934;2023-05-16T06:49:47;6.85;;;1.60;;
70840;SDS011;58465;51.534;9.934;2023-05-16T06:52:13;7.40;;;2.15;;
70840;SDS011;58465;51.534;9.934;2023-05-16T06:54:41;10.45;;;2.30;;
70840;SDS011;58465;51.534;9.934;2023-05-16T06:57:09;11.05;;;1.60;;
70840;SDS011;58465;51.534;9.934;2023-05-16T06:59:35;9.38;;;1.90;;
70840;SDS011;58465;51.534;9.934;2023-05-16T07:02:00;7.60;;;2.00;;
70840;SDS011;58465;51.534;9.934;2023-05-16T07:04:26;10.35;;;1.77;;
70840;SDS011;58465;51.534;9.934;2023-05-16T07:06:52;13.73;;;2.35;;
70840;SDS011;58465;51.534;9.934;2023-05-16T07:09:19;12.40;;;2.20;;
70840;SDS011;58465;51.534;9.934;2023-05-16T07:11:45;9.95;;;1.80;;
70840;SDS011;58465;51.534;9.934;2023-05-16T07:14:10;9.75;;;1.70;;
70840;SDS011;58465;51.534;9.934;2023-05-16T07:16:35;7.13;;;1.73;;
70840;SDS011;58465;51.534;9.934;2023-05-16T07:19:01;10.35;;;1.90;;
70840;SDS011;58465;51.534;9.934;2023-05-16T07:21:26;5.93;;;1.67;;
70840;SDS011;58465;51.534;9.934;2023-05-16T07:23:52;7.30;;;1.95;;
70840;SDS011;58465;51.534;9.934;2023-05-16T07:26:17;9.30;;;2.35;;
70840;SDS011;58465;51.534;9.934;2023-05-16T07:28:43;12.02;;;2.38;;
70840;SDS011;58465;51.534;9.934;2023-05-16T07:31:08;13.90;;;2.25;;
70840;SDS011;58465;51.534;9.934;2023-05-16T07:33:33;6.57;;;1.65;;
70840;SDS011;58465;51.534;9.934;2023-05-16T07:35:59;8.38;;;2.05;;
70840;SDS011;58465;51.534;9.934;2023-05-16T07:38:25;7.70;;;1.92;;
70840;SDS011;58465;51.534;9.934;2023-05-16T07:40:50;7.13;;;1.60;;
70840;SDS011;58465;51.534;9.934;2023-05-16T07:43:16;9.95;;;1.77;;
70840;SDS011;58465;51.534;9.934;2023-05-16T07:45:41;10.50;;;1.90;;
70840;SDS011;58465;51.534;9.934;2023-05-16T07:48:07;12.65;;;3.65;;
70840;SDS011;58465;51.534;9.934;2023-05-16T07:50:32;7.60;;;2.15;;
70840;SDS011;58465;51.534;9.934;2023-05-16T07:52:58;10.45;;;2.47;;
70840;SDS011;58465;51.534;9.934;2023-05-16T07:55:24;12.43;;;2.70;;
70840;SDS011;58465;51.534;9.934;2023-05-16T07:57:49;9.55;;;2.17;;
70840;SDS011;58465;51.534;9.934;2023-05-16T08:00:15;9.55;;;1.67;;
70840;SDS011;58465;51.534;9.934;2023-05-16T08:02:41;6.80;;;1.70;;
70840;SDS011;58465;51.534;9.934;2023-05-16T08:05:07;9.05;;;2.20;;
70840;SDS011;58465;51.534;9.934;2023-05-16T08:07:33;11.32;;;2.67;;
70840;SDS011;58465;51.534;9.934;2023-05-16T08:09:58;9.02;;;1.85;;
70840;SDS011;58465;51.534;9.934;2023-05-16T08:12:25;9.55;;;1.75;;
70840;SDS011;58465;51.534;9.934;2023-05-16T08:14:51;7.30;;;1.77;;
70840;SDS011;58465;51.534;9.934;2023-05-16T08:17:17;6.70;;;1.88;;
70840;SDS011;58465;51.534;9.934;2023-05-16T08:19:43;7.07;;;2.10;;
70840;SDS011;58465;51.534;9.934;2023-05-16T08:22:08;8.52;;;1.55;;
70840;SDS011;58465;51.534;9.934;2023-05-16T08:24:35;11.43;;;2.28;;
70840;SDS011;58465;51.534;9.934;2023-05-16T08:27:00;12.35;;;2.20;;
70840;SDS011;58465;51.534;9.934;2023-05-16T08:29:27;10.85;;;2.70;;
70840;SDS011;58465;51.534;9.934;2023-05-16T08:31:53;8.40;;;1.95;;
70840;SDS011;58465;51.534;9.934;2023-05-16T08:34:21;6.97;;;1.80;;
70840;SDS011;58465;51.534;9.934;2023-05-16T08:36:46;7.18;;;1.40;;
70840;SDS011;58465;51.534;9.934;2023-05-16T08:39:15;12.60;;;2.17;;
70840;SDS011;58465;51.534;9.934;2023-05-16T08:41:40;10.40;;;1.67;;
70840;SDS011;58465;51.534;9.934;2023-05-16T08:44:05;11.25;;;1.60;;
70840;SDS011;58465;51.534;9.934;2023-05-16T08:46:31;11.80;;;1.75;;
70840;SDS011;58465;51.534;9.934;2023-05-16T08:48:59;11.05;;;1.48;;
70840;SDS011;58465;51.534;9.934;2023-05-16T08:51:25;8.48;;;1.55;;
70840;SDS011;58465;51.534;9.934;2023-05-16T08:53:56;6.47;;;1.65;;
70840;SDS011;58465;51.534;9.934;2023-05-16T08:56:28;6.63;;;2.03;;
70840;SDS011;58465;51.534;9.934;2023-05-16T08:59:01;4.25;;;1.33;;
70840;SDS011;58465;51.534;9.934;2023-05-16T09:01:26;8.40;;;1.27;;
70840;SDS011;58465;51.534;9.934;2023-05-16T09:03:52;8.07;;;1.55;;
70840;SDS011;58465;51.534;9.934;2023-05-16T09:06:18;4.20;;;1.45;;
70840;SDS011;58465;51.534;9.934;2023-05-16T09:08:44;5.88;;;1.10;;
70840;SDS011;58465;51.534;9.934;2023-05-16T09:11:10;6.50;;;1.33;;
70840;SDS011;58465;51.534;9.934;2023-05-16T09:13:37;10.55;;;1.80;;
70840;SDS011;58465;51.534;9.934;2023-05-16T09:16:06;6.88;;;1.33;;
70840;SDS011;58465;51.534;9.934;2023-05-16T09:18:33;6.45;;;1.48;;
70840;SDS011;58465;51.534;9.934;2023-05-16T09:20:59;5.55;;;1.30;;
70840;SDS011;58465;51.534;9.934;2023-05-16T09:23:24;3.83;;;1.27;;
70840;SDS011;58465;51.534;9.934;2023-05-16T09:25:51;7.38;;;1.85;;
70840;SDS011;58465;51.534;9.934;2023-05-16T09:28:17;4.22;;;1.30;;
70840;SDS011;58465;51.534;9.934;2023-05-16T09:30:44;6.95;;;1.38;;
70840;SDS011;58465;51.534;9.934;2023-05-16T09:33:10;6.47;;;1.35;;
70840;SDS011;58465;51.534;9.934;2023-05-16T09:35:36;5.90;;;1.17;;
70840;SDS011;58465;51.534;9.934;2023-05-16T09:38:02;7.15;;;1.20;;
70840;SDS011;58465;51.534;9.934;2023-05-16T09:40:27;7.35;;;1.60;;
70840;SDS011;58465;51.534;9.934;2023-05-16T09:43:00;7.25;;;1.20;;
70840;SDS011;58465;51.534;9.934;2023-05-16T09:45:29;4.25;;;1.30;;
70840;SDS011;58465;51.534;9.934;2023-05-16T09:48:03;8.27;;;1.67;;
70840;SDS011;58465;51.534;9.934;2023-05-16T09:50:31;9.88;;;2.15;;
70840;SDS011;58465;51.534;9.934;2023-05-16T09:52:57;11.07;;;1.55;;
70840;SDS011;58465;51.534;9.934;2023-05-16T09:55:22;12.13;;;1.70;;
70840;SDS011;58465;51.534;9.934;2023-05-16T09:57:48;6.18;;;1.50;;
70840;SDS011;58465;51.534;9.934;2023-05-16T10:00:14;10.85;;;1.33;;
70840;SDS011;58465;51.534;9.934;2023-05-16T10:02:39;4.68;;;1.40;;
70840;SDS011;58465;51.534;9.934;2023-05-16T10:05:06;9.73;;;1.50;;
70840;SDS011;58465;51.534;9.934;2023-05-16T10:07:32;10.35;;;2.13;;
70840;SDS011;58465;51.534;9.934;2023-05-16T10:10:04;4.50;;;1.63;;
70840;SDS011;58465;51.534;9.934;2023-05-16T10:12:32;5.82;;;1.67;;
70840;SDS011;58465;51.534;9.934;2023-05-16T10:15:02;6.18;;;1.35;;
70840;SDS011;58465;51.534;9.934;2023-05-16T10:17:30;4.63;;;1.13;;
70840;SDS011;58465;51.534;9.934;2023-05-16T10:22:30;5.18;;;0.85;;
70840;SDS011;58465;51.534;9.934;2023-05-16T10:25:00;8.57;;;1.55;;
70840;SDS011;58465;51.534;9.934;2023-05-16T10:27:33;9.50;;;2.42;;
70840;SDS011;58465;51.534;9.934;2023-05-16T10:29:59;10.27;;;1.70;;
70840;SDS011;58465;51.534;9.934;2023-05-16T10:32:26;8.00;;;1.77;;
70840;SDS011;58465;51.534;9.934;2023-05-16T10:34:52;6.47;;;1.70;;
70840;SDS011;58465;51.534;9.934;2023-05-16T10:37:19;5.65;;;1.23;;
70840;SDS011;58465;51.534;9.934;2023-05-16T10:39:46;4.38;;;1.20;;
70840;SDS011;58465;51.534;9.934;2023-05-16T10:42:12;3.90;;;1.00;;
70840;SDS011;58465;51.534;9.934;2023-05-16T10:44:42;5.00;;;1.05;;
70840;SDS011;58465;51.534;9.934;2023-05-16T10:47:07;7.07;;;1.40;;
70840;SDS011;58465;51.534;9.934;2023-05-16T10:49:33;6.70;;;1.65;;
70840;SDS011;58465;51.534;9.934;2023-05-16T10:52:11;9.65;;;1.13;;
70840;SDS011;58465;51.534;9.934;2023-05-16T10:54:41;3.92;;;0.95;;
70840;SDS011;58465;51.534;9.934;2023-05-16T10:57:18;5.82;;;1.30;;
70840;SDS011;58465;51.534;9.934;2023-05-16T10:59:48;3.83;;;1.02;;
70840;SDS011;58465;51.534;9.934;2023-05-16T11:02:21;4.43;;;1.23;;
70840;SDS011;58465;51.534;9.934;2023-05-16T11:04:54;7.05;;;1.48;;
70840;SDS011;58465;51.534;9.934;2023-05-16T11:07:22;5.72;;;1.20;;
70840;SDS011;58465;51.534;9.934;2023-05-16T11:10:03;7.45;;;1.88;;
70840;SDS011;58465;51.534;9.934;2023-05-16T11:12:37;6.85;;;1.52;;
70840;SDS011;58465;51.534;9.934;2023-05-16T11:17:48;6.85;;;1.02;;
70840;SDS011;58465;51.534;9.934;2023-05-16T11:20:24;2.83;;;1.10;;
70840;SDS011;58465;51.534;9.934;2023-05-16T11:22:51;5.32;;;1.35;;
70840;SDS011;58465;51.534;9.934;2023-05-16T11:25:40;7.20;;;1.20;;
70840;SDS011;58465;51.534;9.934;2023-05-16T11:28:07;5.13;;;1.50;;
70840;SDS011;58465;51.534;9.934;2023-05-16T11:30:36;4.03;;;1.00;;
70840;SDS011;58465;51.534;9.934;2023-05-16T11:33:07;3.53;;;0.95;;
70840;SDS011;58465;51.534;9.934;2023-05-16T11:35:32;4.63;;;1.10;;
70840;SDS011;58465;51.534;9.934;2023-05-16T11:37:58;5.68;;;1.33;;
70840;SDS011;58465;51.534;9.934;2023-05-16T11:40:25;3.72;;;1.05;;
70840;SDS011;58465;51.534;9.934;2023-05-16T11:42:51;6.25;;;1.50;;
70840;SDS011;58465;51.534;9.934;2023-05-16T11:45:17;3.97;;;1.00;;
70840;SDS011;58465;51.534;9.934;2023-05-16T11:47:49;11.00;;;1.70;;
70840;SDS011;58465;51.534;9.934;2023-05-16T11:50:16;5.35;;;1.17;;
70840;SDS011;58465;51.534;9.934;2023-05-16T11:52:43;6.20;;;1.13;;
70840;SDS011;58465;51.534;9.934;2023-05-16T11:55:10;6.55;;;1.65;;
70840;SDS011;58465;51.534;9.934;2023-05-16T11:57:39;3.28;;;1.30;;
70840;SDS011;58465;51.534;9.934;2023-05-16T12:00:13;6.47;;;1.15;;
70840;SDS011;58465;51.534;9.934;2023-05-16T12:02:41;3.90;;;1.23;;
70840;SDS011;58465;51.534;9.934;2023-05-16T12:05:07;3.30;;;1.25;;
70840;SDS011;58465;51.534;9.934;2023-05-16T12:07:37;3.50;;;1.20;;
70840;SDS011;58465;51.534;9.934;2023-05-16T12:10:06;4.13;;;1.30;;
70840;SDS011;58465;51.534;9.934;2023-05-16T12:12:33;6.70;;;1.23;;
70840;SDS011;58465;51.534;9.934;2023-05-16T12:15:00;4.35;;;1.70;;
70840;SDS011;58465;51.534;9.934;2023-05-16T12:17:27;4.35;;;1.20;;
70840;SDS011;58465;51.534;9.934;2023-05-16T12:19:53;5.70;;;1.35;;
70840;SDS011;58465;51.534;9.934;2023-05-16T12:22:18;3.83;;;1.13;;
70840;SDS011;58465;51.534;9.934;2023-05-16T12:24:44;5.65;;;1.10;;
70840;SDS011;58465;51.534;9.934;2023-05-16T12:27:10;4.25;;;1.42;;
70840;SDS011;58465;51.534;9.934;2023-05-16T12:29:35;4.97;;;1.10;;
70840;SDS011;58465;51.534;9.934;2023-05-16T12:32:01;4.28;;;1.20;;
70840;SDS011;58465;51.534;9.934;2023-05-16T12:34:27;2.60;;;1.13;;
70840;SDS011;58465;51.534;9.934;2023-05-16T12:36:53;7.38;;;1.30;;
70840;SDS011;58465;51.534;9.934;2023-05-16T12:39:19;4.22;;;1.40;;
70840;SDS011;58465;51.534;9.934;2023-05-16T12:41:49;6.53;;;1.60;;
70840;SDS011;58465;51.534;9.934;2023-05-16T12:44:18;5.43;;;1.67;;
70840;SDS011;58465;51.534;9.934;2023-05-16T12:46:44;4.63;;;1.30;;
70840;SDS011;58465;51.534;9.934;2023-05-16T12:49:22;5.95;;;1.23;;
70840;SDS011;58465;51.534;9.934;2023-05-16T12:51:49;8.38;;;1.30;;
70840;SDS011;58465;51.534;9.934;2023-05-16T12:54:16;7.30;;;1.50;;
70840;SDS011;58465;51.534;9.934;2023-05-16T12:56:46;5.70;;;1.15;;
70840;SDS011;58465;51.534;9.934;2023-05-16T12:59:12;4.03;;;1.23;;
70840;SDS011;58465;51.534;9.934;2023-05-16T13:01:38;3.15;;;1.10;;
70840;SDS011;58465;51.534;9.934;2023-05-16T13:04:04;5.47;;;1.65;;
70840;SDS011;58465;51.534;9.934;2023-05-16T13:06:30;7.85;;;1.27;;
70840;SDS011;58465;51.534;9.934;2023-05-16T13:08:56;4.63;;;1.38;;
70840;SDS011;58465;51.534;9.934;2023-05-16T13:11:27;4.80;;;1.30;;
70840;SDS011;58465;51.534;9.934;2023-05-16T13:13:52;5.00;;;0.80;;
70840;SDS011;58465;51.534;9.934;2023-05-16T13:16:18;2.63;;;1.00;;
70840;SDS011;58465;51.534;9.934;2023-05-16T13:18:43;3.35;;;1.00;;
70840;SDS011;58465;51.534;9.934;2023-05-16T13:21:09;2.17;;;0.80;;
70840;SDS011;58465;51.534;9.934;2023-05-16T13:23:35;4.25;;;1.10;;
70840;SDS011;58465;51.534;9.934;2023-05-16T13:26:00;3.28;;;1.20;;
70840;SDS011;58465;51.534;9.934;2023-05-16T13:28:26;6.22;;;1.10;;
70840;SDS011;58465;51.534;9.934;2023-05-16T13:30:51;4.50;;;1.20;;
70840;SDS011;58465;51.534;9.934;2023-05-16T13:33:16;5.60;;;1.50;;
70840;SDS011;58465;51.534;9.934;2023-05-16T13:35:42;2.95;;;1.00;;
70840;SDS011;58465;51.534;9.934;2023-05-16T13:38:08;4.93;;;1.27;;
70840;SDS011;58465;51.534;9.934;2023-05-16T13:40:33;3.42;;;1.25;;
70840;SDS011;58465;51.534;9.934;2023-05-16T13:43:00;5.72;;;1.10;;
70840;SDS011;58465;51.534;9.934;2023-05-16T13:45:25;3.70;;;1.38;;
70840;SDS011;58465;51.534;9.934;2023-05-16T13:47:51;6.22;;;1.38;;
70840;SDS011;58465;51.534;9.934;2023-05-16T13:50:16;4.80;;;1.27;;
70840;SDS011;58465;51.534;9.934;2023-05-16T13:52:42;4.75;;;1.25;;
70840;SDS011;58465;51.534;9.934;2023-05-16T13:55:08;5.60;;;1.08;;
70840;SDS011;58465;51.534;9.934;2023-05-16T13:57:34;3.60;;;1.27;;
70840;SDS011;58465;51.534;9.934;2023-05-16T14:00:00;4.60;;;1.30;;
70840;SDS011;58465;51.534;9.934;2023-05-16T14:02:25;6.55;;;1.38;;
70840;SDS011;58465;51.534;9.934;2023-05-16T14:04:51;3.83;;;1.08;;
70840;SDS011;58465;51.534;9.934;2023-05-16T14:07:17;9.40;;;2.13;;
70840;SDS011;58465;51.534;9.934;2023-05-16T14:09:43;7.15;;;1.40;;
70840;SDS011;58465;51.534;9.934;2023-05-16T14:12:09;4.35;;;1.20;;
70840;SDS011;58465;51.534;9.934;2023-05-16T14:14:35;5.05;;;1.20;;
70840;SDS011;58465;51.534;9.934;2023-05-16T14:17:01;3.13;;;1.08;;
70840;SDS011;58465;51.534;9.934;2023-05-16T14:19:28;4.82;;;1.10;;
70840;SDS011;58465;51.534;9.934;2023-05-16T14:21:53;3.75;;;1.02;;
70840;SDS011;58465;51.534;9.934;2023-05-16T14:24:19;4.43;;;1.17;;
70840;SDS011;58465;51.534;9.934;2023-05-16T14:26:45;3.25;;;0.95;;
70840;SDS011;58465;51.534;9.934;2023-05-16T14:29:10;4.30;;;1.10;;
70840;SDS011;58465;51.534;9.934;2023-05-16T14:31:36;5.82;;;1.10;;
70840;SDS011;58465;51.534;9.934;2023-05-16T14:34:02;3.00;;;0.93;;
70840;SDS011;58465;51.534;9.934;2023-05-16T14:36:28;1.02;;;0.77;;
70840;SDS011;58465;51.534;9.934;2023-05-16T14:38:53;2.22;;;1.05;;
70840;SDS011;58465;51.534;9.934;2023-05-16T14:41:19;3.00;;;0.95;;
70840;SDS011;58465;51.534;9.934;2023-05-16T14:43:44;4.25;;;1.20;;
70840;SDS011;58465;51.534;9.934;2023-05-16T14:46:11;2.28;;;0.88;;
70840;SDS011;58465;51.534;9.934;2023-05-16T14:48:37;3.40;;;1.05;;
70840;SDS011;58465;51.534;9.934;2023-05-16T14:51:02;4.57;;;1.33;;
70840;SDS011;58465;51.534;9.934;2023-05-16T14:53:28;5.85;;;1.40;;